sensor_id;sensor_type;location;lat;lon;timestamp;temperature;humidity
65858;SHT31;53776;47.242;18.674;2022-09-03T00:01:12;11.86;89.56
65858;SHT31;53776;47.242;18.674;2022-09-03T00:03:55;11.86;89.58
65858;SHT31;53776;47.242;18.674;2022-09-03T00:06:35;11.83;89.62
65858;SHT31;53776;47.242;18.674;2022-09-03T00:09:14;11.80;89.54
65858;SHT31;53776;47.242;18.674;2022-09-03T00:12:01;11.73;89.68
65858;SHT31;53776;47.242;18.674;2022-09-03T00:14:42;11.70;89.81
65858;SHT31;53776;47.242;18.674;2022-09-03T00:17:14;11.69;89.91
65858;SHT31;53776;47.242;18.674;2022-09-03T00:20:05;11.66;90.15
65858;SHT31;53776;47.242;18.674;2022-09-03T00:22:35;11.67;89.94
65858;SHT31;53776;47.242;18.674;2022-09-03T00:25:04;11.62;89.95
65858;SHT31;53776;47.242;18.674;2022-09-03T00:27:36;11.61;89.95
65858;SHT31;53776;47.242;18.674;2022-09-03T00:30:09;11.59;89.92
65858;SHT31;53776;47.242;18.674;2022-09-03T00:35:31;11.53;89.79
65858;SHT31;53776;47.242;18.674;2022-09-03T00:37:58;11.52;89.76
65858;SHT31;53776;47.242;18.674;2022-09-03T00:43:20;11.42;90.10
65858;SHT31;53776;47.242;18.674;2022-09-03T00:45:59;11.39;90.04
65858;SHT31;53776;47.242;18.674;2022-09-03T00:48:35;11.38;90.07
65858;SHT31;53776;47.242;18.674;2022-09-03T00:51:23;11.33;90.14
65858;SHT31;53776;47.242;18.674;2022-09-03T00:54:02;11.36;90.05
65858;SHT31;53776;47.242;18.674;2022-09-03T00:56:45;11.29;90.13
65858;SHT31;53776;47.242;18.674;2022-09-03T00:59:29;11.31;90.15
65858;SHT31;53776;47.242;18.674;2022-09-03T01:02:05;11.28;90.19
65858;SHT31;53776;47.242;18.674;2022-09-03T01:07:10;11.21;90.67
65858;SHT31;53776;47.242;18.674;2022-09-03T01:15:16;11.19;90.57
65858;SHT31;53776;47.242;18.674;2022-09-03T01:18:15;11.19;90.43
65858;SHT31;53776;47.242;18.674;2022-09-03T01:20:55;11.24;90.39
65858;SHT31;53776;47.242;18.674;2022-09-03T01:23:33;11.19;90.19
65858;SHT31;53776;47.242;18.674;2022-09-03T01:26:15;11.14;89.99
65858;SHT31;53776;47.242;18.674;2022-09-03T01:34:15;11.18;90.29
65858;SHT31;53776;47.242;18.674;2022-09-03T01:48:12;11.12;89.99
65858;SHT31;53776;47.242;18.674;2022-09-03T01:51:02;11.08;90.05
65858;SHT31;53776;47.242;18.674;2022-09-03T01:59:27;10.83;90.29
65858;SHT31;53776;47.242;18.674;2022-09-03T02:01:58;10.80;90.30
65858;SHT31;53776;47.242;18.674;2022-09-03T02:04:26;10.64;90.70
65858;SHT31;53776;47.242;18.674;2022-09-03T02:06:54;10.59;91.03
65858;SHT31;53776;47.242;18.674;2022-09-03T02:09:22;10.63;90.78
65858;SHT31;53776;47.242;18.674;2022-09-03T02:12:15;10.63;90.53
65858;SHT31;53776;47.242;18.674;2022-09-03T02:14:43;10.60;90.68
65858;SHT31;53776;47.242;18.674;2022-09-03T02:17:09;10.57;90.84
65858;SHT31;53776;47.242;18.674;2022-09-03T02:19:35;10.57;91.00
65858;SHT31;53776;47.242;18.674;2022-09-03T02:22:02;10.60;90.79
65858;SHT31;53776;47.242;18.674;2022-09-03T02:24:28;10.61;90.85
65858;SHT31;53776;47.242;18.674;2022-09-03T02:26:54;10.59;90.91
65858;SHT31;53776;47.242;18.674;2022-09-03T02:29:20;10.60;90.79
65858;SHT31;53776;47.242;18.674;2022-09-03T02:31:46;10.61;90.73
65858;SHT31;53776;47.242;18.674;2022-09-03T02:34:12;10.61;90.60
65858;SHT31;53776;47.242;18.674;2022-09-03T02:36:43;10.59;90.80
65858;SHT31;53776;47.242;18.674;2022-09-03T02:39:11;10.56;90.66
65858;SHT31;53776;47.242;18.674;2022-09-03T02:41:36;10.60;90.64
65858;SHT31;53776;47.242;18.674;2022-09-03T02:44:07;10.53;90.76
65858;SHT31;53776;47.242;18.674;2022-09-03T02:46:42;10.55;90.67
65858;SHT31;53776;47.242;18.674;2022-09-03T02:49:08;10.50;90.64
65858;SHT31;53776;47.242;18.674;2022-09-03T02:51:39;10.42;90.67
65858;SHT31;53776;47.242;18.674;2022-09-03T02:54:06;10.43;90.76
65858;SHT31;53776;47.242;18.674;2022-09-03T02:56:32;10.45;90.66
65858;SHT31;53776;47.242;18.674;2022-09-03T02:58:58;10.45;90.64
65858;SHT31;53776;47.242;18.674;2022-09-03T03:01:24;10.52;90.41
65858;SHT31;53776;47.242;18.674;2022-09-03T03:03:50;10.40;90.69
65858;SHT31;53776;47.242;18.674;2022-09-03T03:06:16;10.37;90.74
65858;SHT31;53776;47.242;18.674;2022-09-03T03:08:45;10.37;90.64
65858;SHT31;53776;47.242;18.674;2022-09-03T03:11:11;10.30;90.71
65858;SHT31;53776;47.242;18.674;2022-09-03T03:13:37;10.30;90.66
65858;SHT31;53776;47.242;18.674;2022-09-03T03:16:04;10.23;91.05
65858;SHT31;53776;47.242;18.674;2022-09-03T03:18:30;10.20;91.30
65858;SHT31;53776;47.242;18.674;2022-09-03T03:20:56;10.25;91.14
65858;SHT31;53776;47.242;18.674;2022-09-03T03:23:22;10.29;90.95
65858;SHT31;53776;47.242;18.674;2022-09-03T03:25:47;10.23;90.92
65858;SHT31;53776;47.242;18.674;2022-09-03T03:28:12;10.20;91.13
65858;SHT31;53776;47.242;18.674;2022-09-03T03:30:39;10.23;91.03
65858;SHT31;53776;47.242;18.674;2022-09-03T03:33:07;10.30;90.75
65858;SHT31;53776;47.242;18.674;2022-09-03T03:35:33;10.35;90.60
65858;SHT31;53776;47.242;18.674;2022-09-03T03:37:59;10.28;90.62
65858;SHT31;53776;47.242;18.674;2022-09-03T03:40:24;10.26;90.71
65858;SHT31;53776;47.242;18.674;2022-09-03T03:42:50;10.22;90.61
65858;SHT31;53776;47.242;18.674;2022-09-03T03:45:16;10.26;90.43
65858;SHT31;53776;47.242;18.674;2022-09-03T03:47:42;10.23;90.50
65858;SHT31;53776;47.242;18.674;2022-09-03T03:50:07;10.22;90.60
65858;SHT31;53776;47.242;18.674;2022-09-03T03:52:33;10.22;90.60
65858;SHT31;53776;47.242;18.674;2022-09-03T03:54:58;10.18;90.66
65858;SHT31;53776;47.242;18.674;2022-09-03T03:57:24;10.22;90.60
65858;SHT31;53776;47.242;18.674;2022-09-03T03:59:49;10.18;90.62
65858;SHT31;53776;47.242;18.674;2022-09-03T04:02:16;10.15;90.75
65858;SHT31;53776;47.242;18.674;2022-09-03T04:04:41;10.15;90.72
65858;SHT31;53776;47.242;18.674;2022-09-03T04:07:07;10.16;90.85
65858;SHT31;53776;47.242;18.674;2022-09-03T04:09:33;10.16;90.83
65858;SHT31;53776;47.242;18.674;2022-09-03T04:11:59;10.13;91.09
65858;SHT31;53776;47.242;18.674;2022-09-03T04:14:25;10.19;90.80
65858;SHT31;53776;47.242;18.674;2022-09-03T04:16:53;10.26;90.35
65858;SHT31;53776;47.242;18.674;2022-09-03T04:19:19;10.35;90.20
65858;SHT31;53776;47.242;18.674;2022-09-03T04:21:45;10.32;90.26
65858;SHT31;53776;47.242;18.674;2022-09-03T04:24:11;10.29;90.20
65858;SHT31;53776;47.242;18.674;2022-09-03T04:26:36;10.28;90.20
65858;SHT31;53776;47.242;18.674;2022-09-03T04:29:05;10.26;90.32
65858;SHT31;53776;47.242;18.674;2022-09-03T04:31:32;10.23;90.87
65858;SHT31;53776;47.242;18.674;2022-09-03T04:33:57;10.22;90.71
65858;SHT31;53776;47.242;18.674;2022-09-03T04:36:25;10.29;90.63
65858;SHT31;53776;47.242;18.674;2022-09-03T04:38:52;10.28;90.82
65858;SHT31;53776;47.242;18.674;2022-09-03T04:41:29;10.36;90.61
65858;SHT31;53776;47.242;18.674;2022-09-03T04:43:56;10.40;90.58
65858;SHT31;53776;47.242;18.674;2022-09-03T04:46:24;10.46;90.60
65858;SHT31;53776;47.242;18.674;2022-09-03T04:48:51;10.49;90.59
65858;SHT31;53776;47.242;18.674;2022-09-03T04:51:20;10.49;90.66
65858;SHT31;53776;47.242;18.674;2022-09-03T04:53:47;10.59;90.69
65858;SHT31;53776;47.242;18.674;2022-09-03T04:56:16;10.68;90.77
65858;SHT31;53776;47.242;18.674;2022-09-03T04:58:43;10.74;90.76
65858;SHT31;53776;47.242;18.674;2022-09-03T05:01:15;10.83;90.74
65858;SHT31;53776;47.242;18.674;2022-09-03T05:03:41;10.90;90.76
65858;SHT31;53776;47.242;18.674;2022-09-03T05:06:07;11.03;90.79
65858;SHT31;53776;47.242;18.674;2022-09-03T05:08:34;11.12;90.71
65858;SHT31;53776;47.242;18.674;2022-09-03T05:11:05;11.25;90.73
65858;SHT31;53776;47.242;18.674;2022-09-03T05:13:32;11.42;90.55
65858;SHT31;53776;47.242;18.674;2022-09-03T05:16:00;11.51;90.38
65858;SHT31;53776;47.242;18.674;2022-09-03T05:18:26;11.56;90.40
65858;SHT31;53776;47.242;18.674;2022-09-03T05:21:03;11.62;90.33
65858;SHT31;53776;47.242;18.674;2022-09-03T05:23:29;11.73;90.26
65858;SHT31;53776;47.242;18.674;2022-09-03T05:26:01;11.86;90.08
65858;SHT31;53776;47.242;18.674;2022-09-03T05:28:28;11.95;90.21
65858;SHT31;53776;47.242;18.674;2022-09-03T05:31:04;12.11;90.18
65858;SHT31;53776;47.242;18.674;2022-09-03T05:33:38;12.18;90.11
65858;SHT31;53776;47.242;18.674;2022-09-03T05:36:05;12.31;90.23
65858;SHT31;53776;47.242;18.674;2022-09-03T05:38:31;12.45;90.10
65858;SHT31;53776;47.242;18.674;2022-09-03T05:41:01;12.55;89.94
65858;SHT31;53776;47.242;18.674;2022-09-03T05:43:29;12.66;89.83
65858;SHT31;53776;47.242;18.674;2022-09-03T05:46:02;12.79;89.75
65858;SHT31;53776;47.242;18.674;2022-09-03T05:48:29;12.90;89.61
65858;SHT31;53776;47.242;18.674;2022-09-03T05:51:06;12.99;89.67
65858;SHT31;53776;47.242;18.674;2022-09-03T05:53:34;13.11;89.37
65858;SHT31;53776;47.242;18.674;2022-09-03T05:56:08;13.27;89.15
65858;SHT31;53776;47.242;18.674;2022-09-03T05:58:40;13.34;89.25
65858;SHT31;53776;47.242;18.674;2022-09-03T06:03:42;13.57;89.13
65858;SHT31;53776;47.242;18.674;2022-09-03T06:06:08;13.64;89.35
65858;SHT31;53776;47.242;18.674;2022-09-03T06:08:35;13.79;88.87
65858;SHT31;53776;47.242;18.674;2022-09-03T06:11:03;13.89;88.88
65858;SHT31;53776;47.242;18.674;2022-09-03T06:13:30;13.98;89.02
65858;SHT31;53776;47.242;18.674;2022-09-03T06:15:56;14.15;88.87
65858;SHT31;53776;47.242;18.674;2022-09-03T06:18:23;14.33;88.77
65858;SHT31;53776;47.242;18.674;2022-09-03T06:20:55;14.40;88.58
65858;SHT31;53776;47.242;18.674;2022-09-03T06:23:21;14.50;88.37
65858;SHT31;53776;47.242;18.674;2022-09-03T06:25:46;14.67;87.79
65858;SHT31;53776;47.242;18.674;2022-09-03T06:28:12;14.80;87.77
65858;SHT31;53776;47.242;18.674;2022-09-03T06:30:37;15.13;87.30
65858;SHT31;53776;47.242;18.674;2022-09-03T06:33:03;16.33;84.65
65858;SHT31;53776;47.242;18.674;2022-09-03T06:35:28;18.17;79.27
65858;SHT31;53776;47.242;18.674;2022-09-03T06:37:53;19.41;77.10
65858;SHT31;53776;47.242;18.674;2022-09-03T06:40:19;20.46;73.36
65858;SHT31;53776;47.242;18.674;2022-09-03T06:42:55;21.56;68.68
65858;SHT31;53776;47.242;18.674;2022-09-03T06:45:26;22.08;64.17
65858;SHT31;53776;47.242;18.674;2022-09-03T06:47:53;21.85;66.62
65858;SHT31;53776;47.242;18.674;2022-09-03T06:50:19;21.72;65.21
65858;SHT31;53776;47.242;18.674;2022-09-03T06:52:50;22.45;62.17
65858;SHT31;53776;47.242;18.674;2022-09-03T06:55:15;22.36;60.36
65858;SHT31;53776;47.242;18.674;2022-09-03T06:57:41;22.27;60.60
65858;SHT31;53776;47.242;18.674;2022-09-03T07:00:07;22.54;61.08
65858;SHT31;53776;47.242;18.674;2022-09-03T07:02:32;22.40;59.84
65858;SHT31;53776;47.242;18.674;2022-09-03T07:04:58;22.75;58.44
65858;SHT31;53776;47.242;18.674;2022-09-03T07:07:23;22.89;60.46
65858;SHT31;53776;47.242;18.674;2022-09-03T07:09:49;23.07;58.78
65858;SHT31;53776;47.242;18.674;2022-09-03T07:12:14;23.16;58.46
65858;SHT31;53776;47.242;18.674;2022-09-03T07:14:42;23.92;57.42
65858;SHT31;53776;47.242;18.674;2022-09-03T07:17:09;24.39;56.45
65858;SHT31;53776;47.242;18.674;2022-09-03T07:19:35;24.16;57.20
65858;SHT31;53776;47.242;18.674;2022-09-03T07:22:00;24.66;55.11
65858;SHT31;53776;47.242;18.674;2022-09-03T07:24:25;24.73;53.72
65858;SHT31;53776;47.242;18.674;2022-09-03T07:26:51;24.53;53.61
65858;SHT31;53776;47.242;18.674;2022-09-03T07:29:17;24.92;54.12
65858;SHT31;53776;47.242;18.674;2022-09-03T07:31:44;24.74;53.09
65858;SHT31;53776;47.242;18.674;2022-09-03T07:34:11;24.78;54.17
65858;SHT31;53776;47.242;18.674;2022-09-03T07:36:41;24.56;54.03
65858;SHT31;53776;47.242;18.674;2022-09-03T07:39:08;24.77;53.21
65858;SHT31;53776;47.242;18.674;2022-09-03T07:41:35;24.87;55.41
65858;SHT31;53776;47.242;18.674;2022-09-03T07:44:01;25.41;52.43
65858;SHT31;53776;47.242;18.674;2022-09-03T07:46:31;25.10;53.10
65858;SHT31;53776;47.242;18.674;2022-09-03T07:48:58;25.06;54.40
65858;SHT31;53776;47.242;18.674;2022-09-03T07:51:29;25.82;52.96
65858;SHT31;53776;47.242;18.674;2022-09-03T07:53:57;25.58;51.47
65858;SHT31;53776;47.242;18.674;2022-09-03T07:56:24;25.17;51.85
65858;SHT31;53776;47.242;18.674;2022-09-03T07:58:51;25.14;52.84
65858;SHT31;53776;47.242;18.674;2022-09-03T08:01:19;25.77;53.12
65858;SHT31;53776;47.242;18.674;2022-09-03T08:03:47;25.62;52.75
65858;SHT31;53776;47.242;18.674;2022-09-03T08:06:13;25.73;52.06
65858;SHT31;53776;47.242;18.674;2022-09-03T08:08:39;25.46;53.22
65858;SHT31;53776;47.242;18.674;2022-09-03T08:11:11;25.58;52.97
65858;SHT31;53776;47.242;18.674;2022-09-03T08:13:41;25.93;51.68
65858;SHT31;53776;47.242;18.674;2022-09-03T08:16:08;26.30;52.24
65858;SHT31;53776;47.242;18.674;2022-09-03T08:18:34;26.31;52.04
65858;SHT31;53776;47.242;18.674;2022-09-03T08:21:10;25.89;51.53
65858;SHT31;53776;47.242;18.674;2022-09-03T08:23:41;26.25;50.26
65858;SHT31;53776;47.242;18.674;2022-09-03T08:26:07;26.11;52.13
65858;SHT31;53776;47.242;18.674;2022-09-03T08:28:35;25.90;55.01
65858;SHT31;53776;47.242;18.674;2022-09-03T08:31:12;25.77;52.71
65858;SHT31;53776;47.242;18.674;2022-09-03T08:33:43;26.18;54.69
65858;SHT31;53776;47.242;18.674;2022-09-03T08:36:11;25.67;50.62
65858;SHT31;53776;47.242;18.674;2022-09-03T08:38:38;25.69;52.26
65858;SHT31;53776;47.242;18.674;2022-09-03T08:41:06;25.65;50.27
65858;SHT31;53776;47.242;18.674;2022-09-03T08:46:08;24.98;52.96
65858;SHT31;53776;47.242;18.674;2022-09-03T08:48:34;25.06;53.10
65858;SHT31;53776;47.242;18.674;2022-09-03T08:51:01;24.84;54.68
65858;SHT31;53776;47.242;18.674;2022-09-03T08:53:51;24.84;54.53
65858;SHT31;53776;47.242;18.674;2022-09-03T08:56:24;24.40;57.43
65858;SHT31;53776;47.242;18.674;2022-09-03T08:58:50;24.36;55.48
65858;SHT31;53776;47.242;18.674;2022-09-03T09:01:51;24.67;58.30
65858;SHT31;53776;47.242;18.674;2022-09-03T09:06:56;24.11;56.03
65858;SHT31;53776;47.242;18.674;2022-09-03T09:12:39;23.78;55.42
65858;SHT31;53776;47.242;18.674;2022-09-03T09:18:03;23.54;58.30
65858;SHT31;53776;47.242;18.674;2022-09-03T09:20:47;23.55;59.32
65858;SHT31;53776;47.242;18.674;2022-09-03T09:23:19;23.60;59.41
65858;SHT31;53776;47.242;18.674;2022-09-03T09:25:48;23.71;58.00
65858;SHT31;53776;47.242;18.674;2022-09-03T09:28:22;23.49;58.96
65858;SHT31;53776;47.242;18.674;2022-09-03T09:30:50;23.54;58.92
65858;SHT31;53776;47.242;18.674;2022-09-03T09:33:16;23.68;54.18
65858;SHT31;53776;47.242;18.674;2022-09-03T09:35:42;23.92;54.63
65858;SHT31;53776;47.242;18.674;2022-09-03T09:38:09;24.06;55.92
65858;SHT31;53776;47.242;18.674;2022-09-03T09:40:37;23.95;55.15
65858;SHT31;53776;47.242;18.674;2022-09-03T09:43:09;23.84;53.06
65858;SHT31;53776;47.242;18.674;2022-09-03T09:45:42;23.74;55.81
65858;SHT31;53776;47.242;18.674;2022-09-03T09:50:40;24.35;52.90
65858;SHT31;53776;47.242;18.674;2022-09-03T09:53:10;24.11;56.56
65858;SHT31;53776;47.242;18.674;2022-09-03T09:55:53;24.26;58.72
65858;SHT31;53776;47.242;18.674;2022-09-03T09:58:21;24.36;56.00
65858;SHT31;53776;47.242;18.674;2022-09-03T10:01:10;23.92;55.61
65858;SHT31;53776;47.242;18.674;2022-09-03T10:03:59;24.43;54.49
65858;SHT31;53776;47.242;18.674;2022-09-03T10:06:32;24.25;54.35
65858;SHT31;53776;47.242;18.674;2022-09-03T10:09:19;24.12;54.48
65858;SHT31;53776;47.242;18.674;2022-09-03T10:17:30;24.52;56.29
65858;SHT31;53776;47.242;18.674;2022-09-03T10:20:23;24.49;53.90
65858;SHT31;53776;47.242;18.674;2022-09-03T10:23:18;24.78;54.29
65858;SHT31;53776;47.242;18.674;2022-09-03T10:26:09;24.61;53.31
65858;SHT31;53776;47.242;18.674;2022-09-03T10:28:40;25.04;53.59
65858;SHT31;53776;47.242;18.674;2022-09-03T10:39:59;24.92;50.36
65858;SHT31;53776;47.242;18.674;2022-09-03T10:42:42;24.94;50.42
65858;SHT31;53776;47.242;18.674;2022-09-03T10:50:48;25.04;52.40
65858;SHT31;53776;47.242;18.674;2022-09-03T11:07:00;25.42;47.78
65858;SHT31;53776;47.242;18.674;2022-09-03T11:12:21;25.82;47.50
65858;SHT31;53776;47.242;18.674;2022-09-03T11:14:53;25.87;48.30
65858;SHT31;53776;47.242;18.674;2022-09-03T11:17:27;25.41;48.51
65858;SHT31;53776;47.242;18.674;2022-09-03T11:20:20;25.22;49.11
65858;SHT31;53776;47.242;18.674;2022-09-03T11:22:47;25.38;46.50
65858;SHT31;53776;47.242;18.674;2022-09-03T11:25:18;26.00;51.72
65858;SHT31;53776;47.242;18.674;2022-09-03T11:28:12;25.92;50.04
65858;SHT31;53776;47.242;18.674;2022-09-03T11:33:30;26.32;48.30
65858;SHT31;53776;47.242;18.674;2022-09-03T11:35:59;25.70;47.59
65858;SHT31;53776;47.242;18.674;2022-09-03T11:38:27;26.16;49.25
65858;SHT31;53776;47.242;18.674;2022-09-03T11:45:59;26.68;46.87
65858;SHT31;53776;47.242;18.674;2022-09-03T11:48:43;26.58;47.63
65858;SHT31;53776;47.242;18.674;2022-09-03T11:54:01;26.37;46.22
65858;SHT31;53776;47.242;18.674;2022-09-03T11:56:28;26.24;47.39
65858;SHT31;53776;47.242;18.674;2022-09-03T12:01:42;26.07;44.37
65858;SHT31;53776;47.242;18.674;2022-09-03T12:04:13;25.76;46.22
65858;SHT31;53776;47.242;18.674;2022-09-03T12:12:42;24.91;46.29
65858;SHT31;53776;47.242;18.674;2022-09-03T12:18:03;24.16;47.95
65858;SHT31;53776;47.242;18.674;2022-09-03T12:20:45;24.28;49.39
65858;SHT31;53776;47.242;18.674;2022-09-03T12:23:12;24.50;46.39
65858;SHT31;53776;47.242;18.674;2022-09-03T12:25:45;25.42;45.54
65858;SHT31;53776;47.242;18.674;2022-09-03T12:28:15;25.14;44.79
65858;SHT31;53776;47.242;18.674;2022-09-03T12:30:43;25.24;47.92
65858;SHT31;53776;47.242;18.674;2022-09-03T12:33:12;25.82;44.71
65858;SHT31;53776;47.242;18.674;2022-09-03T12:35:38;26.08;43.57
65858;SHT31;53776;47.242;18.674;2022-09-03T12:38:04;26.47;45.62
65858;SHT31;53776;47.242;18.674;2022-09-03T12:40:30;26.67;41.90
65858;SHT31;53776;47.242;18.674;2022-09-03T12:43:12;26.95;43.83
65858;SHT31;53776;47.242;18.674;2022-09-03T12:45:46;26.52;42.58
65858;SHT31;53776;47.242;18.674;2022-09-03T12:48:16;26.10;43.98
65858;SHT31;53776;47.242;18.674;2022-09-03T12:50:43;25.89;45.96
65858;SHT31;53776;47.242;18.674;2022-09-03T12:53:12;26.45;45.51
65858;SHT31;53776;47.242;18.674;2022-09-03T12:58:16;26.81;42.77
65858;SHT31;53776;47.242;18.674;2022-09-03T13:01:08;26.76;43.92
65858;SHT31;53776;47.242;18.674;2022-09-03T13:06:11;26.89;41.11
65858;SHT31;53776;47.242;18.674;2022-09-03T13:08:46;27.26;38.67
65858;SHT31;53776;47.242;18.674;2022-09-03T13:11:18;27.43;43.00
65858;SHT31;53776;47.242;18.674;2022-09-03T13:14:02;27.26;41.69
65858;SHT31;53776;47.242;18.674;2022-09-03T13:22:08;27.22;43.82
65858;SHT31;53776;47.242;18.674;2022-09-03T13:24:54;27.23;41.94
65858;SHT31;53776;47.242;18.674;2022-09-03T13:30:42;26.99;40.82
65858;SHT31;53776;47.242;18.674;2022-09-03T13:33:23;26.99;38.43
65858;SHT31;53776;47.242;18.674;2022-09-03T13:36:24;27.00;40.54
65858;SHT31;53776;47.242;18.674;2022-09-03T13:38:55;26.96;42.87
65858;SHT31;53776;47.242;18.674;2022-09-03T13:44:18;27.27;41.69
65858;SHT31;53776;47.242;18.674;2022-09-03T13:46:50;27.30;42.27
65858;SHT31;53776;47.242;18.674;2022-09-03T14:03:44;26.30;42.23
65858;SHT31;53776;47.242;18.674;2022-09-03T14:11:52;26.51;40.90
65858;SHT31;53776;47.242;18.674;2022-09-03T14:14:36;26.59;39.26
65858;SHT31;53776;47.242;18.674;2022-09-03T14:25:02;26.90;39.14
65858;SHT31;53776;47.242;18.674;2022-09-03T14:27:31;26.42;40.82
65858;SHT31;53776;47.242;18.674;2022-09-03T14:35:22;26.48;40.39
65858;SHT31;53776;47.242;18.674;2022-09-03T14:40:42;26.55;41.43
65858;SHT31;53776;47.242;18.674;2022-09-03T14:43:15;26.67;42.23
65858;SHT31;53776;47.242;18.674;2022-09-03T14:48:58;27.23;43.42
65858;SHT31;53776;47.242;18.674;2022-09-03T15:04:54;25.89;45.36
65858;SHT31;53776;47.242;18.674;2022-09-03T15:07:53;25.49;46.25
65858;SHT31;53776;47.242;18.674;2022-09-03T15:10:59;25.01;46.68
65858;SHT31;53776;47.242;18.674;2022-09-03T15:13:43;25.08;47.07
65858;SHT31;53776;47.242;18.674;2022-09-03T15:17:04;25.12;48.14
65858;SHT31;53776;47.242;18.674;2022-09-03T15:37:57;24.61;49.47
65858;SHT31;53776;47.242;18.674;2022-09-03T15:40:45;24.15;48.80
65858;SHT31;53776;47.242;18.674;2022-09-03T15:48:20;24.04;49.15
65858;SHT31;53776;47.242;18.674;2022-09-03T15:51:15;24.02;48.73
65858;SHT31;53776;47.242;18.674;2022-09-03T15:56:42;24.06;48.42
65858;SHT31;53776;47.242;18.674;2022-09-03T15:59:24;24.19;46.79
65858;SHT31;53776;47.242;18.674;2022-09-03T16:02:02;24.12;47.96
65858;SHT31;53776;47.242;18.674;2022-09-03T16:07:26;24.20;47.33
65858;SHT31;53776;47.242;18.674;2022-09-03T16:10:06;24.26;49.70
65858;SHT31;53776;47.242;18.674;2022-09-03T16:15:23;24.40;47.31
65858;SHT31;53776;47.242;18.674;2022-09-03T16:18:19;24.33;48.66
65858;SHT31;53776;47.242;18.674;2022-09-03T16:20:53;24.26;48.46
65858;SHT31;53776;47.242;18.674;2022-09-03T16:23:51;24.15;47.95
65858;SHT31;53776;47.242;18.674;2022-09-03T16:28:54;23.79;49.57
65858;SHT31;53776;47.242;18.674;2022-09-03T16:31:54;23.71;49.78
65858;SHT31;53776;47.242;18.674;2022-09-03T16:34:25;23.53;49.74
65858;SHT31;53776;47.242;18.674;2022-09-03T16:48:28;22.64;53.87
65858;SHT31;53776;47.242;18.674;2022-09-03T16:51:07;22.54;55.39
65858;SHT31;53776;47.242;18.674;2022-09-03T17:07:45;22.06;56.99
65858;SHT31;53776;47.242;18.674;2022-09-03T17:18:49;21.65;63.20
65858;SHT31;53776;47.242;18.674;2022-09-03T17:26:43;21.01;64.02
65858;SHT31;53776;47.242;18.674;2022-09-03T17:32:28;20.53;65.36
65858;SHT31;53776;47.242;18.674;2022-09-03T17:34:50;20.28;67.18
65858;SHT31;53776;47.242;18.674;2022-09-03T17:40:24;19.85;64.93
65858;SHT31;53776;47.242;18.674;2022-09-03T17:42:57;19.78;64.94
65858;SHT31;53776;47.242;18.674;2022-09-03T17:45:40;19.78;66.37
65858;SHT31;53776;47.242;18.674;2022-09-03T17:51:08;19.54;68.29
65858;SHT31;53776;47.242;18.674;2022-09-03T17:53:43;19.34;70.00
65858;SHT31;53776;47.242;18.674;2022-09-03T17:56:19;19.27;69.03
65858;SHT31;53776;47.242;18.674;2022-09-03T17:58:52;19.22;68.00
65858;SHT31;53776;47.242;18.674;2022-09-03T18:01:22;19.05;70.12
65858;SHT31;53776;47.242;18.674;2022-09-03T18:04:30;18.96;70.89
65858;SHT31;53776;47.242;18.674;2022-09-03T18:07:23;18.85;70.04
65858;SHT31;53776;47.242;18.674;2022-09-03T18:10:22;18.71;70.60
65858;SHT31;53776;47.242;18.674;2022-09-03T18:13:15;18.57;71.24
65858;SHT31;53776;47.242;18.674;2022-09-03T18:16:30;18.40;71.98
65858;SHT31;53776;47.242;18.674;2022-09-03T18:19:09;18.30;72.52
65858;SHT31;53776;47.242;18.674;2022-09-03T18:21:44;18.16;72.71
65858;SHT31;53776;47.242;18.674;2022-09-03T18:24:54;18.02;72.96
65858;SHT31;53776;47.242;18.674;2022-09-03T18:27:43;17.89;73.52
65858;SHT31;53776;47.242;18.674;2022-09-03T18:30:29;17.78;74.45
65858;SHT31;53776;47.242;18.674;2022-09-03T18:33:14;17.68;74.85
65858;SHT31;53776;47.242;18.674;2022-09-03T18:36:03;17.65;75.36
65858;SHT31;53776;47.242;18.674;2022-09-03T18:38:48;17.65;75.39
65858;SHT31;53776;47.242;18.674;2022-09-03T18:57:51;17.10;78.39
65858;SHT31;53776;47.242;18.674;2022-09-03T19:00:51;17.00;78.84
65858;SHT31;53776;47.242;18.674;2022-09-03T19:03:49;16.87;79.40
65858;SHT31;53776;47.242;18.674;2022-09-03T19:06:58;16.83;79.58
65858;SHT31;53776;47.242;18.674;2022-09-03T19:10:04;16.76;79.65
65858;SHT31;53776;47.242;18.674;2022-09-03T19:22:06;16.49;80.54
65858;SHT31;53776;47.242;18.674;2022-09-03T19:24:55;16.38;80.85
65858;SHT31;53776;47.242;18.674;2022-09-03T19:28:18;16.15;81.12
65858;SHT31;53776;47.242;18.674;2022-09-03T19:38:03;16.00;81.64
65858;SHT31;53776;47.242;18.674;2022-09-03T19:41:01;15.98;81.53
65858;SHT31;53776;47.242;18.674;2022-09-03T19:46:57;15.90;81.64
65858;SHT31;53776;47.242;18.674;2022-09-03T19:52:52;15.91;81.72
65858;SHT31;53776;47.242;18.674;2022-09-03T19:55:43;15.97;80.85
65858;SHT31;53776;47.242;18.674;2022-09-03T19:58:30;15.98;81.01
65858;SHT31;53776;47.242;18.674;2022-09-03T20:01:16;15.98;80.42
65858;SHT31;53776;47.242;18.674;2022-09-03T20:04:13;16.01;80.51
65858;SHT31;53776;47.242;18.674;2022-09-03T20:06:59;15.98;80.80
65858;SHT31;53776;47.242;18.674;2022-09-03T20:09:45;15.93;81.19
65858;SHT31;53776;47.242;18.674;2022-09-03T20:12:37;15.88;80.85
65858;SHT31;53776;47.242;18.674;2022-09-03T20:15:06;15.84;81.28
65858;SHT31;53776;47.242;18.674;2022-09-03T20:17:59;15.90;80.36
65858;SHT31;53776;47.242;18.674;2022-09-03T20:20:35;15.87;81.09
65858;SHT31;53776;47.242;18.674;2022-09-03T20:23:19;15.80;81.20
65858;SHT31;53776;47.242;18.674;2022-09-03T20:42:59;15.63;81.29
65858;SHT31;53776;47.242;18.674;2022-09-03T20:45:36;15.59;81.61
65858;SHT31;53776;47.242;18.674;2022-09-03T20:48:16;15.61;81.39
65858;SHT31;53776;47.242;18.674;2022-09-03T20:53:40;15.61;81.63
65858;SHT31;53776;47.242;18.674;2022-09-03T20:58:57;15.50;81.56
65858;SHT31;53776;47.242;18.674;2022-09-03T21:01:53;15.51;81.73
65858;SHT31;53776;47.242;18.674;2022-09-03T21:04:38;15.47;81.93
65858;SHT31;53776;47.242;18.674;2022-09-03T21:10:06;15.39;82.33
65858;SHT31;53776;47.242;18.674;2022-09-03T21:12:50;15.39;82.50
65858;SHT31;53776;47.242;18.674;2022-09-03T21:20:36;15.36;82.49
65858;SHT31;53776;47.242;18.674;2022-09-03T21:23:13;15.42;82.33
65858;SHT31;53776;47.242;18.674;2022-09-03T21:28:32;15.53;81.91
65858;SHT31;53776;47.242;18.674;2022-09-03T21:31:09;15.60;82.15
65858;SHT31;53776;47.242;18.674;2022-09-03T21:33:38;15.63;81.93